Time,TemperatureF,DewpointF,PressureIn,WindDirection,WindDirectionDegrees,WindSpeedMPH,WindSpeedGustMPH,Humidity,HourlyPrecipIn,Conditions,Clouds,dailyrainin,SoftwareType,DateUTC
2013-12-10 00:42:00,32.0,21.0,-100.00,WSW,237,10.0,-999.0,65,-99.99,,,-99.99,,2013-12-10 05:42:00,
2013-12-10 01:42:00,31.0,21.0,-100.00,WSW,257,9.0,-999.0,65,-99.99,,,-99.99,,2013-12-10 06:42:00,
2013-12-10 02:42:00,31.0,20.0,-100.00,SW,236,12.0,-999.0,64,-99.99,,,-99.99,,2013-12-10 07:42:00,
2013-12-10 03:12:00,31.0,19.0,-100.00,WSW,251,20.0,-999.0,62,-99.99,,,-99.99,,2013-12-10 08:12:00,
2013-12-10 04:11:00,30.0,19.0,-100.00,SW,224,17.0,-999.0,63,-99.99,,,-99.99,,2013-12-10 09:11:00,
2013-12-10 10:53:00,23.0,19.0,-100.00,SE,134,7.0,-999.0,84,-99.99,,,-99.99,,2013-12-10 15:53:00,
2013-12-10 11:23:00,23.0,19.0,-100.00,ESE,103,5.0,-999.0,83,-99.99,,,-99.99,,2013-12-10 16:23:00,
2013-12-10 11:53:00,23.0,19.0,-100.00,WNW,301,5.0,-999.0,84,-99.99,,,-99.99,,2013-12-10 16:53:00,
2013-12-10 14:11:00,24.0,18.0,-100.00,SW,219,6.0,-999.0,79,-99.99,,,-99.99,,2013-12-10 19:11:00,
2013-12-10 14:22:00,24.0,18.0,-100.00,WSW,257,8.0,-999.0,79,-99.99,,,-99.99,,2013-12-10 19:22:00,
2013-12-10 15:11:00,24.0,17.0,-100.00,SW,235,14.0,-999.0,75,-99.99,,,-99.99,,2013-12-10 20:11:00,
2013-12-10 16:12:00,23.0,16.0,-100.00,WSW,258,14.0,-999.0,72,-99.99,,,-99.99,,2013-12-10 21:12:00,
2013-12-10 17:13:00,22.0,17.0,-100.00,WSW,241,6.0,-999.0,80,-99.99,,,-99.99,,2013-12-10 22:13:00,
2013-12-10 17:23:00,21.0,17.0,-100.00,WSW,241,4.0,-999.0,81,-99.99,,,-99.99,,2013-12-10 22:23:00,
2013-12-10 17:43:00,21.0,17.0,-100.00,WSW,255,8.0,-999.0,81,-99.99,,,-99.99,,2013-12-10 22:43:00,
2013-12-10 18:12:00,22.0,16.0,-100.00,SW,228,7.0,-999.0,78,-99.99,,,-99.99,,2013-12-10 23:12:00,
2013-12-10 19:42:00,23.0,11.0,-100.00,SW,226,15.0,-999.0,61,-99.99,,,-99.99,,2013-12-11 00:42:00,
2013-12-10 20:22:00,23.0,10.0,-100.00,SW,230,16.0,-999.0,57,-99.99,,,-99.99,,2013-12-11 01:22:00,
2013-12-10 20:42:00,24.0,11.0,-100.00,WSW,244,12.0,-999.0,56,-99.99,,,-99.99,,2013-12-11 01:42:00,
2013-12-10 22:11:00,22.0,17.0,-100.00,SSW,196,15.0,-999.0,80,-99.99,,,-99.99,,2013-12-11 03:11:00,
2013-12-10 22:43:00,21.0,16.0,-100.00,SSW,206,11.0,-999.0,82,-99.99,,,-99.99,,2013-12-11 03:43:00,
2013-12-10 23:23:00,20.0,15.0,-100.00,WSW,254,7.0,-999.0,83,-99.99,,,-99.99,,2013-12-11 04:23:00,